createdAt,value
2019-03-13T00:01:48.117Z,6.69
2019-03-13T00:04:18.964Z,6.56
2019-03-13T00:06:49.595Z,6.51
2019-03-13T00:09:20.135Z,6.50
2019-03-13T00:11:50.738Z,6.53
2019-03-13T00:14:21.247Z,6.54
2019-03-13T00:16:51.880Z,6.50
2019-03-13T00:19:22.388Z,6.54
2019-03-13T00:21:53.088Z,6.51
2019-03-13T00:24:23.604Z,6.56
2019-03-13T00:26:54.250Z,6.51
2019-03-13T00:29:24.835Z,6.52
2019-03-13T00:31:55.412Z,6.56
2019-03-13T00:34:28.809Z,6.47
2019-03-13T00:36:59.454Z,6.51
2019-03-13T00:39:30.063Z,6.47
2019-03-13T00:42:00.676Z,6.42
2019-03-13T00:44:32.468Z,6.39
2019-03-13T00:47:03.093Z,6.34
2019-03-13T00:49:33.618Z,6.31
2019-03-13T00:52:04.234Z,6.32
2019-03-13T00:54:34.741Z,6.36
2019-03-13T00:57:05.363Z,6.30
2019-03-13T00:59:35.920Z,6.32
2019-03-13T01:02:25.944Z,6.30
2019-03-13T01:05:09.691Z,6.29
2019-03-13T01:07:40.282Z,6.30
2019-03-13T01:10:14.108Z,6.30
2019-03-13T01:12:47.559Z,6.31
2019-03-13T01:15:21.562Z,6.34
2019-03-13T01:17:52.119Z,6.34
2019-03-13T01:20:22.685Z,6.33
2019-03-13T01:22:53.243Z,6.27
2019-03-13T01:25:24.858Z,6.27
2019-03-13T01:27:55.400Z,6.29
2019-03-13T01:30:27.654Z,6.28
2019-03-13T01:33:03.434Z,6.21
2019-03-13T01:35:43.615Z,6.15
2019-03-13T01:38:14.186Z,6.14
2019-03-13T01:40:44.870Z,6.03
2019-03-13T01:43:15.512Z,5.97
2019-03-13T01:45:46.091Z,6.02
2019-03-13T01:48:16.643Z,6.03
2019-03-13T01:50:47.293Z,6.01
2019-03-13T01:53:17.829Z,6.07
2019-03-13T01:55:48.409Z,6.10
2019-03-13T01:58:18.904Z,6.12
2019-03-13T02:03:52.333Z,6.03
2019-03-13T02:06:25.687Z,5.98
2019-03-13T02:08:56.261Z,5.90
2019-03-13T02:11:26.820Z,5.79
2019-03-13T02:13:58.559Z,5.64
2019-03-13T02:16:29.134Z,5.70
2019-03-13T02:18:59.698Z,5.74
2019-03-13T02:21:30.294Z,5.75
2019-03-13T02:24:01.780Z,5.76
2019-03-13T02:26:32.359Z,5.75
2019-03-13T02:29:02.970Z,5.77
2019-03-13T02:31:35.998Z,5.74
2019-03-13T02:34:06.582Z,5.73
2019-03-13T02:36:37.180Z,5.75
2019-03-13T02:39:07.933Z,5.78
2019-03-13T02:41:38.552Z,5.76
2019-03-13T02:44:09.075Z,5.74
2019-03-13T02:46:39.672Z,5.77
2019-03-13T02:49:10.251Z,5.79
2019-03-13T02:51:42.261Z,5.80
2019-03-13T02:54:12.817Z,5.85
2019-03-13T02:56:44.374Z,5.86
2019-03-13T02:59:14.930Z,5.83
2019-03-13T03:02:22.326Z,5.86
2019-03-13T03:04:52.960Z,5.87
2019-03-13T03:07:23.570Z,5.83
2019-03-13T03:09:54.246Z,5.81
2019-03-13T03:12:24.854Z,5.81
2019-03-13T03:15:08.144Z,5.82
2019-03-13T03:17:38.756Z,5.83
2019-03-13T03:20:13.130Z,5.85
2019-03-13T03:22:43.723Z,5.85
2019-03-13T03:25:14.951Z,5.85
2019-03-13T03:27:48.541Z,5.88
2019-03-13T03:30:22.233Z,5.88
2019-03-13T03:32:54.448Z,5.87
2019-03-13T03:35:25.005Z,5.87
2019-03-13T03:37:55.592Z,5.82
2019-03-13T03:40:26.139Z,5.85
2019-03-13T03:42:56.747Z,5.84
2019-03-13T03:45:27.252Z,5.82
2019-03-13T03:47:57.905Z,5.81
2019-03-13T03:50:28.503Z,5.76
2019-03-13T03:53:02.315Z,5.72
2019-03-13T03:55:32.838Z,5.78
2019-03-13T03:58:03.416Z,5.78
2019-03-13T04:00:33.998Z,5.80
2019-03-13T04:03:04.631Z,5.81
2019-03-13T04:05:35.185Z,5.85
2019-03-13T04:08:05.788Z,5.83
2019-03-13T04:10:36.308Z,5.83
2019-03-13T04:13:06.911Z,5.84
2019-03-13T04:15:38.802Z,5.86
2019-03-13T04:18:09.523Z,5.84
2019-03-13T04:20:40.107Z,5.84
2019-03-13T04:23:10.665Z,5.85
2019-03-13T04:25:41.260Z,5.87
2019-03-13T04:28:14.309Z,5.89
2019-03-13T04:30:44.865Z,5.81
2019-03-13T04:33:15.440Z,5.77
2019-03-13T04:35:46.006Z,5.79
2019-03-13T04:38:16.633Z,5.73
2019-03-13T04:40:47.161Z,5.72
2019-03-13T04:43:17.700Z,5.75
2019-03-13T04:45:48.238Z,5.76
2019-03-13T04:48:18.810Z,5.72
2019-03-13T04:50:49.367Z,5.71
2019-03-13T04:53:19.951Z,5.70
2019-03-13T04:55:52.523Z,5.68
2019-03-13T04:58:22.825Z,5.71
2019-03-13T05:00:53.402Z,5.71
2019-03-13T05:03:23.978Z,5.67
2019-03-13T05:06:02.903Z,5.63
2019-03-13T05:08:45.376Z,5.59
2019-03-13T05:11:15.941Z,5.58
2019-03-13T05:13:46.562Z,5.56
2019-03-13T05:16:17.138Z,5.56
2019-03-13T05:18:47.803Z,5.53
2019-03-13T05:21:18.360Z,5.47
2019-03-13T05:23:50.121Z,5.55
2019-03-13T05:26:20.707Z,5.55
2019-03-13T05:28:51.353Z,5.53
2019-03-13T05:31:21.871Z,5.54
2019-03-13T05:33:52.485Z,5.54
2019-03-13T05:36:22.998Z,5.52
2019-03-13T05:38:53.612Z,5.51
2019-03-13T05:41:24.186Z,5.48
2019-03-13T05:43:54.764Z,5.46
2019-03-13T05:46:25.299Z,5.46
2019-03-13T05:48:55.880Z,5.39
2019-03-13T05:51:26.385Z,5.34
2019-03-13T05:53:57.010Z,5.36
2019-03-13T05:56:27.625Z,5.30
2019-03-13T05:58:58.183Z,5.30
2019-03-13T06:01:28.769Z,5.31
2019-03-13T06:03:59.388Z,5.35
2019-03-13T06:06:30.973Z,5.39
2019-03-13T06:09:01.573Z,5.36
2019-03-13T06:11:32.089Z,5.33
2019-03-13T06:14:05.017Z,5.34
2019-03-13T06:16:35.529Z,5.35
2019-03-13T06:19:06.175Z,5.35
2019-03-13T06:21:36.700Z,5.38
2019-03-13T06:24:10.368Z,5.38
2019-03-13T06:26:43.308Z,5.40
2019-03-13T06:29:13.171Z,5.40
2019-03-13T06:31:43.780Z,5.45
2019-03-13T06:34:14.400Z,5.46
2019-03-13T06:36:44.897Z,5.47
2019-03-13T06:39:15.515Z,5.47
2019-03-13T06:41:46.080Z,5.46
2019-03-13T06:44:16.752Z,5.45
2019-03-13T06:46:47.284Z,5.45
2019-03-13T06:49:17.898Z,5.48
2019-03-13T06:51:48.494Z,5.49
2019-03-13T06:54:19.114Z,5.53
2019-03-13T06:56:49.703Z,5.54
2019-03-13T06:59:34.298Z,5.55
2019-03-13T07:02:29.877Z,5.55
2019-03-13T07:05:25.206Z,5.54
2019-03-13T07:08:02.037Z,5.53
2019-03-13T07:11:09.541Z,5.54
2019-03-13T07:14:08.153Z,5.55
2019-03-13T07:16:47.083Z,5.53
2019-03-13T07:19:35.026Z,5.52
2019-03-13T07:22:11.741Z,5.52
2019-03-13T07:24:59.926Z,5.57
2019-03-13T07:27:55.576Z,5.55
2019-03-13T07:30:52.696Z,5.52
2019-03-13T07:33:46.786Z,5.51
2019-03-13T07:36:34.985Z,5.43
2019-03-13T07:39:22.183Z,5.39
2019-03-13T07:42:11.621Z,5.37
2019-03-13T07:44:53.823Z,5.38
2019-03-13T07:47:52.410Z,5.41
2019-03-13T07:50:59.830Z,5.43
2019-03-13T07:53:47.779Z,5.43
2019-03-13T07:56:31.589Z,5.43
2019-03-13T07:59:13.372Z,5.44
2019-03-13T08:02:02.967Z,5.44
2019-03-13T08:05:04.613Z,5.43
2019-03-13T08:07:53.343Z,5.51
2019-03-13T08:10:39.252Z,5.53
2019-03-13T08:13:41.105Z,5.49
2019-03-13T08:16:31.308Z,5.50
2019-03-13T08:19:34.923Z,5.59
2019-03-13T08:22:26.886Z,5.66
2019-03-13T08:25:26.119Z,5.75
2019-03-13T08:28:24.653Z,5.77
2019-03-13T08:31:15.266Z,5.82
2019-03-13T08:34:07.318Z,5.85
2019-03-13T08:36:54.938Z,5.86
2019-03-13T08:39:35.791Z,5.88
2019-03-13T08:42:19.242Z,5.84
2019-03-13T08:45:05.365Z,5.78
2019-03-13T08:48:05.598Z,5.85
2019-03-13T08:50:43.555Z,5.80
2019-03-13T08:53:25.582Z,5.82
2019-03-13T08:56:18.178Z,5.77
2019-03-13T08:58:58.177Z,5.77
2019-03-13T09:01:40.038Z,5.72
2019-03-13T09:04:31.257Z,5.71
2019-03-13T09:07:12.856Z,5.73
2019-03-13T09:09:55.647Z,5.74
2019-03-13T09:12:51.068Z,5.75
2019-03-13T09:15:46.554Z,5.76
2019-03-13T09:18:26.615Z,5.76
2019-03-13T09:21:16.743Z,5.76
2019-03-13T09:23:56.067Z,5.76
2019-03-13T09:26:35.884Z,5.73
2019-03-13T09:29:37.650Z,5.74
2019-03-13T09:32:25.816Z,5.66
2019-03-13T09:35:24.365Z,5.70
2019-03-13T09:38:26.453Z,5.69
2019-03-13T09:41:18.682Z,5.74
2019-03-13T09:44:14.049Z,5.71
2019-03-13T09:47:01.740Z,5.66
2019-03-13T09:49:51.179Z,5.76
2019-03-13T09:52:40.949Z,5.87
2019-03-13T09:55:27.605Z,5.86
2019-03-13T09:58:07.684Z,5.92
2019-03-13T10:00:57.091Z,5.96
2019-03-13T10:03:45.409Z,6.01
2019-03-13T10:06:33.289Z,5.99
2019-03-13T10:09:17.300Z,5.98
2019-03-13T10:12:06.795Z,6.01
2019-03-13T10:14:48.312Z,6.05
2019-03-13T10:17:28.057Z,6.10
2019-03-13T10:20:09.650Z,6.06
2019-03-13T10:23:04.917Z,6.08
2019-03-13T10:25:51.863Z,6.12
2019-03-13T10:28:47.183Z,6.13
2019-03-13T10:31:39.766Z,6.13
2019-03-13T10:34:30.637Z,6.18
2019-03-13T10:37:10.397Z,6.29
2019-03-13T10:40:00.256Z,6.30
2019-03-13T10:42:46.443Z,6.24
2019-03-13T10:45:36.047Z,6.34
2019-03-13T10:48:14.946Z,6.46
2019-03-13T10:50:57.275Z,6.45
2019-03-13T10:53:54.147Z,6.51
2019-03-13T10:56:49.761Z,6.57
2019-03-13T10:59:51.456Z,6.62
2019-03-13T11:02:43.726Z,6.66
2019-03-13T11:05:29.872Z,6.71
2019-03-13T11:08:19.385Z,6.73
2019-03-13T11:10:57.976Z,6.77
2019-03-13T11:13:51.328Z,6.77
2019-03-13T11:16:33.906Z,6.77
2019-03-13T11:19:20.936Z,6.77
2019-03-13T11:22:04.423Z,6.75
2019-03-13T11:24:39.252Z,6.82
2019-03-13T11:27:27.479Z,6.78
2019-03-13T11:30:28.935Z,6.75
2019-03-13T11:33:20.846Z,6.72
2019-03-13T11:36:08.760Z,6.74
2019-03-13T11:38:52.534Z,6.78
2019-03-13T11:41:42.018Z,6.84
2019-03-13T11:44:31.552Z,6.82
2019-03-13T11:47:16.229Z,6.87
2019-03-13T11:50:05.728Z,6.90
2019-03-13T11:52:57.965Z,6.98
2019-03-13T11:56:02.410Z,7.10
2019-03-13T11:58:52.174Z,7.00
2019-03-13T12:01:44.897Z,7.06
2019-03-13T12:04:16.724Z,7.02
2019-03-13T12:07:08.051Z,6.97
2019-03-13T12:09:50.088Z,6.97
2019-03-13T12:12:38.030Z,6.91
2019-03-13T12:15:32.953Z,6.98
2019-03-13T12:18:29.823Z,6.85
2019-03-13T12:21:18.200Z,6.85
2019-03-13T12:24:06.137Z,6.89
2019-03-13T12:26:47.853Z,6.86
2019-03-13T12:29:40.375Z,6.91
2019-03-13T12:32:28.473Z,6.86
2019-03-13T12:35:17.971Z,6.87
2019-03-13T12:38:13.431Z,6.80
2019-03-13T12:41:04.846Z,6.85
2019-03-13T12:44:00.138Z,6.83
2019-03-13T12:46:38.099Z,6.84
2019-03-13T12:49:16.614Z,6.76
2019-03-13T12:52:01.221Z,6.70
2019-03-13T12:54:50.260Z,6.74
2019-03-13T12:57:33.328Z,6.70
2019-03-13T13:00:17.049Z,6.71
2019-03-13T13:03:12.568Z,6.68
2019-03-13T13:05:58.674Z,6.59
2019-03-13T13:08:57.278Z,6.52
2019-03-13T13:11:40.369Z,6.44
2019-03-13T13:14:29.578Z,6.46
2019-03-13T13:17:22.208Z,6.49
2019-03-13T13:19:55.935Z,6.46
2019-03-13T13:22:26.434Z,6.40
2019-03-13T13:24:56.969Z,6.42
2019-03-13T13:27:27.583Z,6.46
2019-03-13T13:29:58.184Z,6.46
2019-03-13T13:32:28.789Z,6.40
2019-03-13T13:34:59.401Z,6.36
2019-03-13T13:37:30.000Z,6.34
2019-03-13T13:40:00.533Z,6.40
2019-03-13T13:42:31.182Z,6.42
2019-03-13T13:45:01.761Z,6.48
2019-03-13T13:47:32.360Z,6.52
2019-03-13T13:50:02.889Z,6.57
2019-03-13T13:52:33.464Z,6.55
2019-03-13T13:55:04.024Z,6.62
2019-03-13T13:57:34.660Z,6.69
2019-03-13T14:00:11.254Z,6.74
2019-03-13T14:02:41.556Z,6.71
2019-03-13T14:05:12.095Z,6.69
2019-03-13T14:07:42.720Z,6.78
2019-03-13T14:10:13.314Z,6.89
2019-03-13T14:12:44.003Z,6.94
2019-03-13T14:15:14.733Z,6.95
2019-03-13T14:17:45.337Z,7.00
2019-03-13T14:20:16.141Z,6.99
2019-03-13T14:22:46.722Z,6.97
2019-03-13T14:25:18.912Z,6.98
2019-03-13T14:27:49.503Z,7.00
2019-03-13T14:30:20.354Z,6.96
2019-03-13T14:32:50.948Z,6.98
2019-03-13T14:35:23.010Z,6.92
2019-03-13T14:37:53.606Z,6.84
2019-03-13T14:40:24.104Z,6.94
2019-03-13T14:42:54.708Z,6.96
2019-03-13T14:45:25.243Z,6.91
2019-03-13T14:47:55.820Z,6.95
2019-03-13T14:50:27.899Z,6.95
2019-03-13T14:52:58.499Z,7.02
2019-03-13T14:55:29.074Z,7.00
2019-03-13T14:57:59.657Z,7.00
2019-03-13T15:00:33.475Z,6.97
2019-03-13T15:03:06.419Z,6.99
2019-03-13T15:05:37.069Z,6.97
2019-03-13T15:08:07.609Z,7.02
2019-03-13T15:10:38.248Z,7.06
2019-03-13T15:13:08.962Z,7.05
2019-03-13T15:15:39.608Z,7.00
2019-03-13T15:18:10.279Z,7.03
2019-03-13T15:20:40.964Z,6.97
2019-03-13T15:23:11.546Z,6.99
2019-03-13T15:25:42.166Z,7.00
2019-03-13T15:28:12.793Z,7.01
2019-03-13T15:30:43.413Z,7.02
2019-03-13T15:33:15.511Z,7.08
2019-03-13T15:35:48.260Z,7.11
2019-03-13T15:38:18.839Z,7.13
2019-03-13T15:40:49.437Z,7.17
2019-03-13T15:43:20.026Z,7.18
2019-03-13T15:45:53.372Z,7.15
2019-03-13T15:48:24.022Z,7.18
2019-03-13T15:50:54.563Z,7.17
2019-03-13T15:53:28.251Z,7.16
2019-03-13T15:56:00.706Z,7.15
2019-03-13T15:58:31.345Z,7.15
2019-03-13T16:01:01.939Z,7.15
2019-03-13T16:03:32.526Z,7.10
2019-03-13T16:06:04.096Z,7.11
2019-03-13T16:08:34.795Z,7.06
2019-03-13T16:11:07.061Z,7.08
2019-03-13T16:13:38.641Z,7.09
2019-03-13T16:16:10.667Z,7.15
2019-03-13T16:18:41.288Z,7.17
2019-03-13T16:21:14.186Z,7.15
2019-03-13T16:23:44.756Z,7.08
2019-03-13T16:26:18.315Z,7.09
2019-03-13T16:28:48.888Z,7.14
2019-03-13T16:31:19.448Z,7.15
2019-03-13T16:33:55.455Z,7.12
2019-03-13T16:36:26.034Z,7.12
2019-03-13T16:38:56.691Z,7.11
2019-03-13T16:41:27.305Z,7.17
2019-03-13T16:43:57.922Z,7.17
2019-03-13T16:46:28.511Z,7.22
2019-03-13T16:48:59.115Z,7.26
2019-03-13T16:51:29.668Z,7.28
2019-03-13T16:54:00.416Z,7.28
2019-03-13T16:56:30.994Z,7.30
2019-03-13T16:59:01.612Z,7.30
2019-03-13T17:01:32.201Z,7.23
2019-03-13T17:04:03.914Z,7.25
2019-03-13T17:06:34.492Z,7.25
2019-03-13T17:09:06.991Z,7.26
2019-03-13T17:11:37.573Z,7.30
2019-03-13T17:14:08.245Z,7.22
2019-03-13T17:16:40.108Z,7.29
2019-03-13T17:19:10.773Z,7.31
2019-03-13T17:21:44.327Z,7.34
2019-03-13T17:24:16.200Z,7.35
2019-03-13T17:26:46.777Z,7.36
2019-03-13T17:29:17.445Z,7.35
2019-03-13T17:31:48.824Z,7.27
2019-03-13T17:34:19.427Z,7.22
2019-03-13T17:36:53.065Z,7.11
2019-03-13T17:39:23.730Z,7.04
2019-03-13T17:41:54.338Z,7.10
2019-03-13T17:44:25.015Z,7.04
2019-03-13T17:46:55.622Z,7.11
2019-03-13T17:49:26.290Z,7.07
2019-03-13T17:51:58.273Z,7.06
2019-03-13T17:54:29.517Z,7.01
2019-03-13T17:57:00.181Z,7.05
2019-03-13T17:59:30.806Z,7.07
2019-03-13T18:02:01.405Z,7.11
2019-03-13T18:04:32.093Z,7.08
2019-03-13T18:07:02.756Z,7.08
2019-03-13T18:09:33.415Z,7.03
2019-03-13T18:12:03.942Z,7.01
2019-03-13T18:14:34.600Z,7.04
2019-03-13T18:17:12.461Z,7.04
2019-03-13T18:19:38.750Z,7.06
2019-03-13T18:22:09.345Z,7.03
2019-03-13T18:24:48.143Z,6.98
2019-03-13T18:27:18.924Z,6.96
2019-03-13T18:29:49.575Z,6.84
2019-03-13T18:32:41.658Z,6.56
2019-03-13T18:35:05.000Z,6.45
2019-03-13T18:37:36.178Z,6.24
2019-03-13T18:40:07.615Z,6.14
2019-03-13T18:42:38.172Z,6.05
2019-03-13T18:45:17.742Z,6.02
2019-03-13T18:47:54.433Z,5.98
2019-03-13T18:50:25.051Z,5.92
2019-03-13T18:52:55.754Z,5.88
2019-03-13T18:55:26.477Z,5.88
2019-03-13T18:57:57.105Z,5.93
2019-03-13T19:00:29.860Z,5.94
2019-03-13T19:03:00.605Z,5.97
2019-03-13T19:05:31.311Z,5.94
2019-03-13T19:08:01.909Z,5.91
2019-03-13T19:10:32.586Z,5.90
2019-03-13T19:13:03.291Z,5.90
2019-03-13T19:15:34.085Z,5.91
2019-03-13T19:18:04.766Z,5.91
2019-03-13T19:20:35.438Z,5.96
2019-03-13T19:23:06.025Z,6.01
2019-03-13T19:25:38.771Z,6.03
2019-03-13T19:28:09.332Z,5.99
2019-03-13T19:30:39.994Z,6.04
2019-03-13T19:33:10.611Z,6.05
2019-03-13T19:35:41.263Z,6.08
2019-03-13T19:38:11.819Z,6.09
2019-03-13T19:40:42.484Z,6.04
2019-03-13T19:43:13.084Z,6.03
2019-03-13T19:45:43.786Z,6.06
2019-03-13T19:48:14.376Z,6.07
2019-03-13T19:50:45.200Z,6.08
2019-03-13T19:53:17.660Z,6.09
2019-03-13T19:55:48.424Z,6.12
2019-03-13T19:58:20.753Z,6.10
2019-03-13T20:00:51.426Z,6.13
2019-03-13T20:03:22.112Z,6.17
2019-03-13T20:05:52.660Z,6.16
2019-03-13T20:08:23.245Z,6.17
2019-03-13T20:10:53.869Z,6.17
2019-03-13T20:13:24.457Z,6.18
2019-03-13T20:15:55.150Z,6.21
2019-03-13T20:18:25.787Z,6.19
2019-03-13T20:20:57.295Z,6.16
2019-03-13T20:23:28.000Z,6.13
2019-03-13T20:25:58.663Z,6.13
2019-03-13T20:28:29.241Z,6.11
2019-03-13T20:31:01.971Z,6.07
2019-03-13T20:33:32.585Z,6.11
2019-03-13T20:36:06.288Z,6.10
2019-03-13T20:38:36.942Z,6.10
2019-03-13T20:41:11.659Z,6.12
2019-03-13T20:43:42.266Z,6.08
2019-03-13T20:46:12.968Z,6.09
2019-03-13T20:48:43.544Z,6.08
2019-03-13T20:51:14.159Z,6.08
2019-03-13T20:53:44.783Z,6.08
2019-03-13T20:56:15.462Z,6.00
2019-03-13T20:58:46.079Z,5.96
2019-03-13T21:01:16.835Z,5.96
2019-03-13T21:03:47.463Z,5.95
2019-03-13T21:06:20.224Z,5.98
2019-03-13T21:08:54.133Z,5.95
2019-03-13T21:11:23.513Z,5.93
2019-03-13T21:13:54.100Z,5.93
2019-03-13T21:16:24.832Z,5.93
2019-03-13T21:18:55.439Z,5.92
2019-03-13T21:21:26.072Z,5.91
2019-03-13T21:23:56.658Z,5.88
2019-03-13T21:26:27.439Z,5.87
2019-03-13T21:28:58.039Z,5.84
2019-03-13T21:31:28.699Z,5.83
2019-03-13T21:33:59.266Z,5.86
2019-03-13T21:36:29.869Z,5.86
2019-03-13T21:39:00.467Z,5.85
2019-03-13T21:41:31.159Z,5.87
2019-03-13T21:44:03.172Z,5.88
2019-03-13T21:46:34.929Z,5.88
2019-03-13T21:49:07.989Z,5.88
2019-03-13T21:51:37.888Z,5.89
2019-03-13T21:54:08.538Z,5.88
2019-03-13T21:56:39.177Z,5.87
2019-03-13T21:59:09.819Z,5.87
2019-03-13T22:01:40.664Z,5.89
2019-03-13T22:04:23.560Z,5.91
2019-03-13T22:06:44.569Z,5.88
2019-03-13T22:09:15.118Z,5.91
2019-03-13T22:11:45.765Z,5.92
2019-03-13T22:14:16.314Z,5.93
2019-03-13T22:16:49.040Z,5.95
2019-03-13T22:19:19.874Z,5.97
2019-03-13T22:21:50.480Z,5.97
2019-03-13T22:24:23.756Z,5.97
2019-03-13T22:26:54.365Z,5.95
2019-03-13T22:29:25.024Z,5.89
2019-03-13T22:31:55.667Z,5.89
2019-03-13T22:34:28.697Z,5.87
2019-03-13T22:36:59.505Z,5.89
2019-03-13T22:39:30.008Z,5.89
2019-03-13T22:42:00.637Z,5.88
2019-03-13T22:44:31.171Z,5.88
2019-03-13T22:47:01.756Z,5.87
2019-03-13T22:49:32.350Z,5.86
2019-03-13T22:52:03.018Z,5.84
2019-03-13T22:54:33.593Z,5.83
2019-03-13T22:57:04.234Z,5.88
2019-03-13T22:59:34.797Z,5.90
2019-03-13T23:02:07.720Z,5.90
2019-03-13T23:04:38.264Z,5.89
2019-03-13T23:07:08.905Z,5.91
2019-03-13T23:09:39.467Z,5.96
2019-03-13T23:12:10.090Z,5.99
2019-03-13T23:14:40.605Z,6.04
2019-03-13T23:17:14.215Z,6.10
2019-03-13T23:19:46.460Z,6.12
2019-03-13T23:22:17.061Z,6.13
2019-03-13T23:24:47.613Z,6.15
2019-03-13T23:27:18.245Z,6.15
2019-03-13T23:29:50.286Z,6.15
2019-03-13T23:32:20.912Z,6.12
2019-03-13T23:34:51.484Z,6.13
2019-03-13T23:37:22.057Z,6.16
2019-03-13T23:39:52.580Z,6.17
2019-03-13T23:42:23.229Z,6.17
2019-03-13T23:44:54.952Z,6.19
2019-03-13T23:47:25.768Z,6.16
2019-03-13T23:49:56.309Z,6.20
2019-03-13T23:52:26.924Z,6.18
2019-03-13T23:54:57.511Z,6.19
2019-03-13T23:57:28.979Z,6.23
